Time;durP1;ratioP1;P1;durP2;ratioP2;P2;SDS_P1;SDS_P2;PMS_P1;PMS_P2;Temp;Humidity;BMP_temperature;BMP_pressure;BME280_temperature;BME280_humidity;BME280_pressure;Samples;Min_cycle;Max_cycle;Signal;HPM_P1;HPM_P2
2022/12/27 00:00:09;;;;;;;3.65;2.50;;;32.70;99.90;;;;;;5074419;28;20172;-71
2022/12/27 00:02:39;;;;;;;5.07;2.58;;;32.70;99.90;;;;;;5090412;28;20240;-70
2022/12/27 00:05:09;;;;;;;3.85;2.20;;;32.80;99.90;;;;;;5093424;28;20229;-71
2022/12/27 00:07:36;;;;;;;5.28;2.60;;;32.60;99.90;;;;;;5094417;28;20219;-70
2022/12/27 00:10:05;;;;;;;5.72;2.75;;;33.10;99.90;;;;;;5085152;28;20180;-70
2022/12/27 00:12:32;;;;;;;4.07;2.42;;;33.50;99.90;;;;;;5088861;28;20184;-70
2022/12/27 00:15:00;;;;;;;4.65;2.90;;;33.80;99.90;;;;;;5092838;28;20214;-70
2022/12/27 00:17:27;;;;;;;4.07;3.05;;;33.50;99.90;;;;;;5094087;28;20179;-70
2022/12/27 00:19:55;;;;;;;4.72;3.25;;;33.10;99.90;;;;;;5093834;28;20174;-70
2022/12/27 00:22:22;;;;;;;3.25;3.00;;;33.30;99.90;;;;;;5079946;28;20233;-70
2022/12/27 00:24:49;;;;;;;4.18;2.50;;;33.40;99.90;;;;;;5084421;28;20175;-71
2022/12/27 00:27:17;;;;;;;2.45;2.03;;;33.80;99.90;;;;;;5093784;28;20536;-70
2022/12/27 00:29:44;;;;;;;4.68;2.92;;;33.00;99.90;;;;;;5093579;28;20218;-70
2022/12/27 00:32:11;;;;;;;3.17;2.90;;;33.00;99.90;;;;;;5081806;28;20253;-69
2022/12/27 00:34:39;;;;;;;5.00;2.90;;;33.00;99.90;;;;;;5073368;28;20179;-71
2022/12/27 00:37:06;;;;;;;8.63;3.70;;;32.80;99.90;;;;;;5075655;28;20263;-70
2022/12/27 00:39:34;;;;;;;5.65;3.60;;;33.30;99.90;;;;;;5089317;28;20182;-70
2022/12/27 00:42:01;;;;;;;4.10;2.78;;;33.70;99.90;;;;;;5083235;28;20176;-70
2022/12/27 00:44:28;;;;;;;3.10;2.80;;;34.10;99.90;;;;;;5087101;28;20187;-72
2022/12/27 00:46:56;;;;;;;9.07;3.30;;;34.30;99.90;;;;;;5093258;28;20190;-68
2022/12/27 00:49:23;;;;;;;4.80;2.65;;;34.40;99.90;;;;;;5079077;28;20188;-74
2022/12/27 00:51:51;;;;;;;6.22;2.25;;;34.70;99.90;;;;;;5081452;28;20176;-68
2022/12/27 00:54:18;;;;;;;2.75;2.35;;;34.70;99.90;;;;;;5093508;28;20171;-72
2022/12/27 00:56:45;;;;;;;4.35;2.35;;;34.60;99.90;;;;;;5093177;28;20238;-76
2022/12/27 00:59:13;;;;;;;4.63;2.63;;;34.00;99.90;;;;;;5093142;28;20179;-75
2022/12/27 01:01:41;;;;;;;4.43;1.95;;;33.60;99.90;;;;;;5086729;28;20640;-70
2022/12/27 01:04:10;;;;;;;3.47;1.80;;;33.30;99.90;;;;;;5081792;28;20656;-69
2022/12/27 01:06:38;;;;;;;4.15;1.60;;;33.50;99.90;;;;;;5093402;28;20579;-68
2022/12/27 01:09:06;;;;;;;3.15;1.58;;;34.00;99.90;;;;;;5093209;28;20314;-69
2022/12/27 01:11:33;;;;;;;3.85;1.50;;;34.10;99.90;;;;;;5086880;28;20176;-72
2022/12/27 01:14:03;;;;;;;2.85;1.52;;;33.80;99.90;;;;;;5072786;28;20183;-74
2022/12/27 01:16:31;;;;;;;3.03;1.27;;;34.10;99.90;;;;;;5073002;28;20184;-73
2022/12/27 01:19:00;;;;;;;1.58;1.15;;;34.20;99.90;;;;;;5085452;28;20187;-70
2022/12/27 01:21:29;;;;;;;2.88;1.23;;;34.30;99.90;;;;;;5088726;28;20180;-67
2022/12/27 01:23:57;;;;;;;3.70;1.35;;;33.90;99.90;;;;;;5072858;28;20246;-68
2022/12/27 01:26:25;;;;;;;5.13;1.27;;;34.20;99.90;;;;;;5072306;28;20176;-70
2022/12/27 01:28:53;;;;;;;4.80;1.30;;;34.70;99.90;;;;;;5072737;28;20223;-71
2022/12/27 01:31:24;;;;;;;2.40;1.10;;;34.70;99.90;;;;;;5079761;28;20218;-78
2022/12/27 01:33:57;;;;;;;4.43;1.00;;;34.70;99.90;;;;;;5092453;28;20244;-71
2022/12/27 01:36:26;;;;;;;1.90;0.77;;;34.70;99.90;;;;;;5092805;28;20602;-69
2022/12/27 01:38:53;;;;;;;5.00;0.90;;;34.30;99.90;;;;;;5092178;28;20187;-75
2022/12/27 01:44:50;;;;;;;3.05;1.00;;;34.90;99.90;;;;;;5073955;28;20270;-68
2022/12/27 01:47:48;;;;;;;1.83;0.98;;;34.60;99.90;;;;;;5093405;28;20679;-73
2022/12/27 01:50:35;;;;;;;3.42;1.17;;;34.10;99.90;;;;;;5099462;28;20266;-69
2022/12/27 01:53:31;;;;;;;1.50;0.60;;;34.10;99.90;;;;;;5082059;28;20218;-69
2022/12/27 01:56:08;;;;;;;5.30;0.98;;;34.10;99.90;;;;;;5071696;28;20615;-67
2022/12/27 01:58:48;;;;;;;4.00;1.05;;;33.90;99.90;;;;;;5079168;28;20182;-70
2022/12/27 02:01:21;;;;;;;3.08;0.65;;;34.10;99.90;;;;;;5085379;28;20176;-72
2022/12/27 02:03:58;;;;;;;3.17;1.00;;;34.20;99.90;;;;;;5071723;28;20617;-71
2022/12/27 02:06:27;;;;;;;3.10;0.70;;;34.30;99.90;;;;;;5071980;28;20680;-71
2022/12/27 02:08:57;;;;;;;4.35;0.85;;;34.30;99.90;;;;;;5084835;28;20218;-80
2022/12/27 02:11:51;;;;;;;2.38;0.82;;;34.10;99.90;;;;;;5083961;28;20621;-70
2022/12/27 02:14:23;;;;;;;1.95;0.70;;;33.80;99.90;;;;;;5073025;28;20187;-77
2022/12/27 02:16:52;;;;;;;3.00;0.70;;;33.70;99.90;;;;;;5072680;28;20210;-68
2022/12/27 02:19:38;;;;;;;3.28;0.88;;;33.80;99.90;;;;;;5070393;28;20190;-79
2022/12/27 02:22:08;;;;;;;2.05;0.80;;;33.90;99.90;;;;;;5084461;28;20680;-68
2022/12/27 02:25:03;;;;;;;0.93;0.73;;;34.10;99.90;;;;;;5072638;28;20176;-72
2022/12/27 02:27:42;;;;;;;2.78;0.90;;;33.80;99.90;;;;;;5086002;28;20369;-78
2022/12/27 02:30:12;;;;;;;3.72;0.90;;;33.90;99.90;;;;;;5092181;28;20179;-69
2022/12/27 02:33:00;;;;;;;2.03;1.10;;;33.60;99.90;;;;;;5073157;28;20555;-75
2022/12/27 02:35:50;;;;;;;3.58;1.00;;;33.70;99.90;;;;;;5071647;28;20187;-68
2022/12/27 02:38:44;;;;;;;1.95;0.65;;;33.50;99.90;;;;;;5072860;28;20274;-73
2022/12/27 02:55:29;;;;;;;1.80;0.80;;;33.80;99.20;;;;;;5085557;28;20300;-72
2022/12/27 02:58:26;;;;;;;2.53;0.70;;;33.50;99.90;;;;;;5072029;28;20191;-77
2022/12/27 03:04:10;;;;;;;4.68;0.70;;;33.80;99.50;;;;;;5091467;28;20232;-68
2022/12/27 03:06:43;;;;;;;4.07;0.80;;;33.80;96.60;;;;;;5091602;28;20194;-68
2022/12/27 03:15:57;;;;;;;3.97;0.80;;;33.60;98.20;;;;;;5071127;28;20680;-79
2022/12/27 03:18:59;;;;;;;3.53;1.10;;;33.80;94.40;;;;;;5073481;28;20270;-71
2022/12/27 03:27:30;;;;;;;2.88;0.95;;;34.10;98.50;;;;;;5071378;28;20183;-69
2022/12/27 03:33:13;;;;;;;4.28;1.13;;;34.10;95.90;;;;;;5091370;28;20226;-68
2022/12/27 03:35:43;;;;;;;2.40;0.93;;;34.10;99.00;;;;;;5093502;28;20195;-69
2022/12/27 03:38:13;;;;;;;3.20;1.17;;;34.20;99.00;;;;;;5094068;28;20636;-75
2022/12/27 03:43:46;;;;;;;4.88;1.10;;;33.90;94.60;;;;;;5095146;28;20248;-72
2022/12/27 03:46:33;;;;;;;4.95;0.95;;;33.80;98.00;;;;;;5090447;28;20175;-73
2022/12/27 03:49:25;;;;;;;2.70;1.08;;;34.00;90.00;;;;;;5075866;28;20219;-70
2022/12/27 03:52:08;;;;;;;3.45;0.85;;;34.40;91.80;;;;;;5074634;28;20686;-74
2022/12/27 03:54:39;;;;;;;1.48;0.65;;;34.10;92.70;;;;;;5074194;28;20172;-70
2022/12/27 03:57:12;;;;;;;2.13;0.70;;;34.20;65.20;;;;;;5074656;28;20267;-68
2022/12/27 03:59:40;;;;;;;1.95;0.70;;;34.80;67.40;;;;;;5092096;28;20301;-71
2022/12/27 04:02:08;;;;;;;2.47;0.88;;;35.00;87.30;;;;;;5092883;28;20660;-70
2022/12/27 04:04:36;;;;;;;1.52;0.60;;;34.70;85.20;;;;;;5094566;28;20231;-72
2022/12/27 04:07:04;;;;;;;2.80;1.15;;;34.40;78.80;;;;;;5077811;28;20176;-70
2022/12/27 04:37:06;;;;;;;3.67;0.85;;;34.90;52.80;;;;;;5089259;28;20198;-70
2022/12/27 04:39:33;;;;;;;4.53;0.70;;;35.30;51.30;;;;;;5093792;28;20800;-71
2022/12/27 04:56:05;;;;;;;1.05;0.70;;;34.80;49.30;;;;;;5080333;28;20199;-71
2022/12/27 04:58:33;;;;;;;1.27;0.45;;;35.20;52.40;;;;;;5082449;28;20206;-70
2022/12/27 05:03:50;;;;;;;1.80;0.60;;;34.70;41.40;;;;;;5084300;28;20535;-72
2022/12/27 05:06:19;;;;;;;2.63;1.00;;;34.70;45.20;;;;;;5082317;28;20227;-71
2022/12/27 05:14:17;;;;;;;1.77;0.80;;;34.40;45.70;;;;;;5082954;28;20683;-71
2022/12/27 05:16:44;;;;;;;1.38;0.50;;;34.10;45.90;;;;;;5081407;28;20171;-69
2022/12/27 05:19:14;;;;;;;1.60;0.60;;;33.80;44.80;;;;;;5072418;28;20186;-71
2022/12/27 05:27:14;;;;;;;2.25;0.50;;;34.00;40.60;;;;;;5094417;28;20228;-73
2022/12/27 05:29:42;;;;;;;0.85;0.43;;;33.80;37.70;;;;;;5094522;28;20178;-70
2022/12/27 05:32:09;;;;;;;1.35;0.30;;;33.70;38.90;;;;;;5094854;28;20171;-70
2022/12/27 05:34:36;;;;;;;2.35;0.50;;;33.90;43.10;;;;;;5088291;28;20237;-72
2022/12/27 05:37:04;;;;;;;1.02;0.70;;;34.30;42.80;;;;;;5073731;28;20176;-72
2022/12/27 05:39:31;;;;;;;2.10;0.50;;;34.40;37.10;;;;;;5073847;28;20629;-74
2022/12/27 05:41:59;;;;;;;0.63;0.40;;;34.40;43.50;;;;;;5074985;28;20184;-70
2022/12/27 05:44:27;;;;;;;2.25;0.50;;;34.30;32.70;;;;;;5077302;28;20175;-75
2022/12/27 05:46:55;;;;;;;0.75;0.30;;;33.80;37.10;;;;;;5093986;28;20167;-74
2022/12/27 05:49:22;;;;;;;1.55;0.52;;;33.50;39.90;;;;;;5093880;28;20309;-72
2022/12/27 05:51:49;;;;;;;7.18;0.57;;;33.30;40.40;;;;;;5093865;28;20175;-74
2022/12/27 05:54:17;;;;;;;0.68;0.40;;;33.10;33.20;;;;;;5090853;28;20185;-71
2022/12/27 05:56:44;;;;;;;1.05;0.43;;;33.00;32.70;;;;;;5073496;28;20636;-73
2022/12/27 05:59:12;;;;;;;1.42;0.70;;;33.20;36.10;;;;;;5073421;28;20172;-70
2022/12/27 06:01:39;;;;;;;2.10;0.50;;;33.40;37.50;;;;;;5073259;28;20168;-75
2022/12/27 06:04:06;;;;;;;2.35;0.50;;;33.50;36.50;;;;;;5073093;28;20184;-70
2022/12/27 06:06:34;;;;;;;4.03;0.55;;;33.10;39.00;;;;;;5091662;28;20656;-70
2022/12/27 06:09:02;;;;;;;1.67;0.85;;;33.10;41.40;;;;;;5086814;28;20214;-73
2022/12/27 06:11:29;;;;;;;2.60;0.55;;;32.90;45.70;;;;;;5073361;28;20183;-75
2022/12/27 06:13:56;;;;;;;2.72;0.73;;;33.00;50.60;;;;;;5073348;28;20183;-69
2022/12/27 06:16:24;;;;;;;1.08;0.43;;;32.90;50.70;;;;;;5093938;28;20173;-72
2022/12/27 06:18:51;;;;;;;2.28;0.73;;;32.90;52.20;;;;;;5093137;28;20179;-71
2022/12/27 06:21:20;;;;;;;3.55;0.60;;;32.40;53.20;;;;;;5093298;28;20171;-70
2022/12/27 06:23:49;;;;;;;1.80;0.77;;;32.20;57.40;;;;;;5093230;28;20224;-70
2022/12/27 06:26:22;;;;;;;2.30;0.52;;;32.40;56.60;;;;;;5073283;28;20266;-71
2022/12/27 06:28:50;;;;;;;1.73;0.80;;;32.30;57.10;;;;;;5073240;28;20203;-73
2022/12/27 06:31:19;;;;;;;2.17;0.73;;;32.10;56.10;;;;;;5073161;28;20172;-70
2022/12/27 06:33:48;;;;;;;2.47;0.75;;;31.60;68.70;;;;;;5090507;28;20602;-70
2022/12/27 06:36:18;;;;;;;0.83;0.43;;;31.60;75.30;;;;;;5073580;28;20188;-69
2022/12/27 06:38:46;;;;;;;1.35;0.70;;;31.70;81.10;;;;;;5071665;28;20180;-69
2022/12/27 06:41:16;;;;;;;3.25;0.70;;;31.90;79.10;;;;;;5073700;28;20551;-75
2022/12/27 06:43:45;;;;;;;1.92;0.50;;;31.70;79.20;;;;;;5072913;28;20543;-74
2022/12/27 06:46:16;;;;;;;3.17;0.57;;;31.50;69.20;;;;;;5091169;28;20190;-70
2022/12/27 06:48:44;;;;;;;1.83;0.52;;;31.20;71.60;;;;;;5093187;28;20271;-74
2022/12/27 06:51:14;;;;;;;2.80;1.00;;;31.20;72.20;;;;;;5093123;28;20609;-76
2022/12/27 06:53:41;;;;;;;4.53;0.63;;;30.80;74.90;;;;;;5091538;28;20183;-69
2022/12/27 06:56:20;;;;;;;2.37;0.67;;;30.70;81.80;;;;;;5074921;28;20207;-69
2022/12/27 06:58:48;;;;;;;1.77;0.60;;;30.40;82.80;;;;;;5073038;28;20223;-70
2022/12/27 07:01:20;;;;;;;3.77;0.87;;;30.50;85.90;;;;;;5072611;28;20188;-70
2022/12/27 07:03:52;;;;;;;2.63;0.60;;;30.10;85.70;;;;;;5072956;28;20172;-73
2022/12/27 07:06:23;;;;;;;2.43;0.83;;;30.00;90.70;;;;;;5072510;28;20685;-69
2022/12/27 07:08:51;;;;;;;0.97;0.70;;;29.90;93.90;;;;;;5076442;28;20290;-68
2022/12/27 07:11:21;;;;;;;3.20;1.07;;;29.80;97.10;;;;;;5095602;28;20182;-69
2022/12/27 07:13:53;;;;;;;2.30;0.70;;;29.70;97.90;;;;;;5095532;28;20171;-70
2022/12/27 07:16:25;;;;;;;2.83;0.77;;;29.60;99.90;;;;;;5076649;28;20172;-69
2022/12/27 07:18:54;;;;;;;1.00;0.60;;;29.60;99.90;;;;;;5077054;28;20172;-70
2022/12/27 07:21:23;;;;;;;1.57;0.50;;;29.70;99.90;;;;;;5076341;28;20222;-69
2022/12/27 07:23:51;;;;;;;4.83;1.00;;;29.90;99.90;;;;;;5077213;28;20243;-70
2022/12/27 07:26:22;;;;;;;1.67;0.70;;;29.60;99.90;;;;;;5096647;28;20172;-70
2022/12/27 07:28:52;;;;;;;2.07;0.80;;;29.50;99.90;;;;;;5096775;28;20698;-69
2022/12/27 07:31:22;;;;;;;1.70;0.70;;;29.50;99.90;;;;;;5096750;28;20637;-69
2022/12/27 07:33:51;;;;;;;5.40;1.03;;;29.30;99.90;;;;;;5096528;28;20180;-69
2022/12/27 07:36:23;;;;;;;2.77;0.80;;;29.10;99.90;;;;;;5094350;28;20183;-69
2022/12/27 07:38:51;;;;;;;1.50;0.70;;;29.00;99.90;;;;;;5090685;28;20243;-68
2022/12/27 07:41:19;;;;;;;3.57;1.13;;;28.80;99.90;;;;;;5075972;28;20172;-69
2022/12/27 07:43:47;;;;;;;3.93;0.70;;;28.80;99.90;;;;;;5076232;28;20639;-73
2022/12/27 07:46:18;;;;;;;6.40;1.27;;;28.70;99.90;;;;;;5076001;28;20187;-72
2022/12/27 07:48:46;;;;;;;2.83;0.70;;;28.60;99.90;;;;;;5076124;28;20211;-68
2022/12/27 07:51:16;;;;;;;2.57;0.80;;;28.50;99.90;;;;;;5075811;28;20214;-69
2022/12/27 07:53:44;;;;;;;1.83;0.63;;;28.30;99.90;;;;;;5075641;28;20649;-73
2022/12/27 07:56:15;;;;;;;1.20;0.80;;;28.20;99.90;;;;;;5096006;28;20550;-68
2022/12/27 07:58:45;;;;;;;2.47;0.73;;;28.20;99.90;;;;;;5094858;28;20179;-68
2022/12/27 08:01:14;;;;;;;2.33;0.73;;;28.20;99.90;;;;;;5093274;28;20187;-70
2022/12/27 08:03:43;;;;;;;1.53;0.60;;;28.10;99.90;;;;;;5081049;28;20294;-75
2022/12/27 08:06:22;;;;;;;2.33;0.70;;;28.00;99.90;;;;;;5085738;28;20250;-74
2022/12/27 08:08:52;;;;;;;1.73;0.87;;;28.10;99.90;;;;;;5084307;28;20576;-74
2022/12/27 08:11:20;;;;;;;1.33;0.80;;;28.20;99.90;;;;;;5084088;28;20523;-70
2022/12/27 08:13:48;;;;;;;2.43;0.80;;;28.00;99.90;;;;;;5095884;28;20590;-70
2022/12/27 08:16:19;;;;;;;2.47;0.73;;;27.80;99.90;;;;;;5076614;28;20207;-72
2022/12/27 08:18:47;;;;;;;2.23;0.90;;;27.90;99.90;;;;;;5075466;28;20190;-69
2022/12/27 08:21:15;;;;;;;3.80;1.00;;;27.60;99.90;;;;;;5074382;28;20179;-67
2022/12/27 08:23:43;;;;;;;2.27;0.90;;;27.50;99.90;;;;;;5076437;28;20206;-68
2022/12/27 08:26:10;;;;;;;1.23;0.80;;;27.40;99.90;;;;;;5075288;28;20186;-70
2022/12/27 08:28:39;;;;;;;2.37;0.93;;;27.20;99.90;;;;;;5075242;28;20239;-69
2022/12/27 08:31:08;;;;;;;3.57;1.00;;;27.20;99.90;;;;;;5093432;28;20187;-71
2022/12/27 08:33:37;;;;;;;2.63;0.83;;;27.10;99.90;;;;;;5093422;28;20182;-68
2022/12/27 08:36:07;;;;;;;3.50;0.90;;;27.00;99.90;;;;;;5075199;28;20169;-69
2022/12/27 08:38:35;;;;;;;2.93;0.87;;;26.80;99.90;;;;;;5075069;28;20249;-76
2022/12/27 08:41:03;;;;;;;4.83;0.83;;;26.60;99.90;;;;;;5074952;28;20179;-69
2022/12/27 08:43:30;;;;;;;4.77;0.93;;;26.40;99.90;;;;;;5077399;28;20191;-70
2022/12/27 08:46:03;;;;;;;3.30;1.10;;;26.20;99.90;;;;;;5095326;28;20270;-68
2022/12/27 08:48:32;;;;;;;2.73;0.90;;;26.10;99.90;;;;;;5094946;28;20217;-70
2022/12/27 08:51:07;;;;;;;3.23;1.30;;;25.90;99.90;;;;;;5095012;28;20167;-70
2022/12/27 08:53:35;;;;;;;2.97;1.13;;;25.70;99.90;;;;;;5091803;28;20271;-69
2022/12/27 08:56:03;;;;;;;2.13;0.90;;;25.60;99.90;;;;;;5074715;28;20575;-68
2022/12/27 08:58:30;;;;;;;2.10;1.10;;;25.50;99.90;;;;;;5088001;28;20198;-74
2022/12/27 09:01:05;;;;;;;2.90;1.00;;;25.40;99.90;;;;;;5094547;28;20238;-74
2022/12/27 09:03:33;;;;;;;3.50;1.30;;;25.40;99.90;;;;;;5090308;28;20215;-75
2022/12/27 09:06:14;;;;;;;11.80;1.47;;;25.20;99.90;;;;;;5074319;28;20250;-70
2022/12/27 09:08:47;;;;;;;6.80;1.37;;;25.10;99.90;;;;;;5074501;28;20215;-69
2022/12/27 09:11:20;;;;;;;1.53;0.80;;;25.00;99.90;;;;;;5074381;28;20680;-73
2022/12/27 09:13:48;;;;;;;5.40;1.40;;;25.00;99.90;;;;;;5079934;28;20179;-69
2022/12/27 09:16:19;;;;;;;2.53;0.90;;;24.90;99.90;;;;;;5094717;28;20649;-69
2022/12/27 09:18:53;;;;;;;2.97;0.93;;;24.80;99.90;;;;;;5095001;28;20179;-69
2022/12/27 09:21:22;;;;;;;5.90;1.47;;;24.70;99.90;;;;;;5095015;28;20167;-69
2022/12/27 09:27:12;;;;;;;8.80;1.80;;;24.50;99.90;;;;;;5073671;28;20676;-69
2022/12/27 09:33:02;;;;;;;6.10;1.10;;;24.40;99.90;;;;;;5073194;28;20202;-69
2022/12/27 09:35:29;;;;;;;4.60;1.50;;;24.30;99.90;;;;;;5093051;28;20175;-70
2022/12/27 09:37:57;;;;;;;2.73;1.47;;;24.20;99.90;;;;;;5092655;28;20204;-71
2022/12/27 09:40:25;;;;;;;2.53;1.23;;;24.20;99.90;;;;;;5094046;28;20571;-70
2022/12/27 09:43:09;;;;;;;5.03;1.30;;;24.10;99.90;;;;;;5093854;28;20612;-69
2022/12/27 09:45:44;;;;;;;2.17;1.10;;;24.10;99.90;;;;;;5073497;28;20636;-69
2022/12/27 09:48:34;;;;;;;3.30;1.00;;;24.00;99.90;;;;;;5077142;28;20200;-69
2022/12/27 09:51:31;;;;;;;2.03;1.07;;;24.00;99.90;;;;;;5073668;28;20202;-71
2022/12/27 09:54:15;;;;;;;3.13;1.17;;;23.90;99.90;;;;;;5072962;28;20179;-70
2022/12/27 09:56:43;;;;;;;4.07;1.03;;;23.80;99.90;;;;;;5073430;28;20267;-70
2022/12/27 09:59:28;;;;;;;3.20;1.10;;;23.80;99.90;;;;;;5073419;28;20168;-69
2022/12/27 10:01:56;;;;;;;2.50;1.30;;;23.70;99.90;;;;;;5084420;28;20229;-69
2022/12/27 10:04:25;;;;;;;4.83;1.67;;;23.60;99.90;;;;;;5082340;28;20532;-69
2022/12/27 10:07:23;;;;;;;4.17;1.30;;;23.50;99.90;;;;;;5093238;28;20291;-69
2022/12/27 10:10:04;;;;;;;4.83;1.30;;;23.40;99.90;;;;;;5093543;28;20725;-69
2022/12/27 10:12:46;;;;;;;4.30;1.20;;;23.40;99.90;;;;;;5092096;28;20207;-69
2022/12/27 10:15:27;;;;;;;4.23;1.03;;;23.40;99.90;;;;;;5083331;28;20189;-69
2022/12/27 10:18:30;;;;;;;5.37;1.20;;;23.30;99.90;;;;;;5093407;28;20179;-71
2022/12/27 10:21:26;;;;;;;3.40;0.93;;;23.30;99.90;;;;;;5074188;28;20532;-69
2022/12/27 10:24:05;;;;;;;2.60;1.07;;;23.20;99.90;;;;;;5077849;28;20593;-69
2022/12/27 10:26:33;;;;;;;4.20;1.30;;;23.20;99.90;;;;;;5081490;28;20176;-68
2022/12/27 10:29:15;;;;;;;3.93;1.30;;;23.10;99.90;;;;;;5081979;28;20214;-69
2022/12/27 10:31:43;;;;;;;4.50;1.00;;;23.10;99.90;;;;;;5092050;28;20178;-69
2022/12/27 10:34:15;;;;;;;3.47;0.97;;;23.10;99.90;;;;;;5090843;28;20175;-68
2022/12/27 10:36:45;;;;;;;3.73;1.20;;;23.10;99.90;;;;;;5093447;28;20710;-69
2022/12/27 10:39:27;;;;;;;5.33;1.10;;;23.00;99.90;;;;;;5093348;28;20246;-69
2022/12/27 10:42:09;;;;;;;3.13;1.00;;;22.90;99.90;;;;;;5092480;28;20188;-69
2022/12/27 10:44:37;;;;;;;4.67;1.17;;;22.90;99.90;;;;;;5083416;28;20179;-69
2022/12/27 10:47:05;;;;;;;1.57;0.87;;;22.90;99.90;;;;;;5072986;28;20290;-69
2022/12/27 10:49:34;;;;;;;4.33;1.20;;;22.90;99.90;;;;;;5071613;28;20560;-69
2022/12/27 10:52:22;;;;;;;5.10;1.10;;;22.80;99.90;;;;;;5072769;28;20180;-68
2022/12/27 10:54:53;;;;;;;2.93;1.10;;;22.80;99.90;;;;;;5083573;28;20175;-69
2022/12/27 10:57:32;;;;;;;1.77;1.07;;;22.80;99.90;;;;;;5093058;28;20175;-69
2022/12/27 11:00:22;;;;;;;5.53;1.13;;;22.70;99.90;;;;;;5093113;28;20175;-69
2022/12/27 11:03:02;;;;;;;3.10;1.30;;;22.60;99.90;;;;;;5093066;28;20176;-70
2022/12/27 11:05:32;;;;;;;4.90;1.23;;;22.50;99.90;;;;;;5076009;28;20219;-69
2022/12/27 11:08:19;;;;;;;3.20;1.30;;;22.50;99.90;;;;;;5072630;28;20212;-69
2022/12/27 11:10:47;;;;;;;4.60;1.50;;;22.50;99.90;;;;;;5072852;28;20172;-69
2022/12/27 11:13:19;;;;;;;3.30;1.03;;;22.60;99.90;;;;;;5087346;28;20171;-69
2022/12/27 11:15:58;;;;;;;6.37;1.40;;;22.60;99.90;;;;;;5074150;28;20650;-70
2022/12/27 11:18:28;;;;;;;3.87;1.33;;;22.50;99.90;;;;;;5072639;28;20174;-71
2022/12/27 11:21:02;;;;;;;6.60;1.50;;;22.40;99.90;;;;;;5072700;28;20187;-70
2022/12/27 11:23:49;;;;;;;1.30;1.00;;;22.40;99.90;;;;;;5072747;28;20170;-70
2022/12/27 11:26:21;;;;;;;3.10;1.50;;;22.40;99.90;;;;;;5072648;28;20188;-70
2022/12/27 11:28:53;;;;;;;3.47;1.50;;;22.30;99.90;;;;;;5072579;28;20214;-69
2022/12/27 11:31:46;;;;;;;4.13;1.47;;;22.20;99.90;;;;;;5071110;28;20180;-69
2022/12/27 11:34:37;;;;;;;4.67;1.13;;;22.10;99.90;;;;;;5074491;28;20204;-69
2022/12/27 11:37:17;;;;;;;3.70;1.37;;;22.20;99.90;;;;;;5092692;28;20570;-70
2022/12/27 11:39:51;;;;;;;2.17;0.97;;;22.20;99.90;;;;;;5089942;28;20191;-70
2022/12/27 11:42:40;;;;;;;6.37;1.27;;;22.00;99.90;;;;;;5072602;28;20173;-70
2022/12/27 11:45:27;;;;;;;1.77;1.00;;;22.00;99.90;;;;;;5081864;28;20206;-69
2022/12/27 11:47:55;;;;;;;2.40;1.10;;;21.90;99.90;;;;;;5090485;28;20704;-69
2022/12/27 11:50:52;;;;;;;4.63;3.20;;;21.90;99.90;;;;;;5072759;28;20180;-69
2022/12/27 11:53:56;;;;;;;2.70;1.40;;;21.90;99.90;;;;;;5061724;28;20222;-70
2022/12/27 11:56:28;;;;;;;4.47;1.33;;;21.90;99.90;;;;;;5094580;28;20624;-69
2022/12/27 11:58:59;;;;;;;5.80;1.00;;;21.90;99.90;;;;;;5096054;28;20164;-70
2022/12/27 12:01:51;;;;;;;5.00;1.57;;;21.90;99.90;;;;;;5095769;28;20182;-70
2022/12/27 12:04:47;;;;;;;4.23;0.97;;;21.80;99.90;;;;;;5075730;28;20182;-70
2022/12/27 12:07:50;;;;;;;4.60;1.43;;;21.70;99.90;;;;;;5075897;28;20238;-70
2022/12/27 12:10:36;;;;;;;4.23;1.10;;;21.60;99.90;;;;;;5075563;28;20246;-69
2022/12/27 12:13:28;;;;;;;2.57;1.57;;;21.70;99.90;;;;;;5075762;28;20258;-69
2022/12/27 12:16:39;;;;;;;3.80;1.40;;;21.70;99.90;;;;;;5085798;28;20270;-69
2022/12/27 12:19:25;;;;;;;3.10;1.60;;;21.60;99.90;;;;;;5098203;28;20171;-69
2022/12/27 12:22:02;;;;;;;2.50;1.13;;;21.60;99.90;;;;;;5094392;28;20190;-69
2022/12/27 12:24:32;;;;;;;4.77;1.67;;;21.60;99.90;;;;;;5085777;28;20182;-70
2022/12/27 12:27:30;;;;;;;3.97;1.50;;;21.50;99.90;;;;;;5074107;28;20172;-69
2022/12/27 12:30:13;;;;;;;8.23;1.67;;;21.50;99.90;;;;;;5075474;28;20267;-69
2022/12/27 12:33:15;;;;;;;1.73;1.17;;;21.60;99.90;;;;;;5075025;28;20172;-69
2022/12/27 12:35:57;;;;;;;5.57;1.37;;;21.70;99.90;;;;;;5094180;28;20178;-69
2022/12/27 12:38:34;;;;;;;6.23;2.10;;;21.70;99.90;;;;;;5095997;28;20186;-69
2022/12/27 12:41:25;;;;;;;2.07;1.60;;;21.80;99.90;;;;;;5089659;28;20184;-71
2022/12/27 12:44:05;;;;;;;5.60;2.20;;;21.90;99.90;;;;;;5088927;28;20194;-70
2022/12/27 12:47:08;;;;;;;3.33;2.03;;;21.90;99.90;;;;;;5095822;28;20175;-69
2022/12/27 12:50:04;;;;;;;3.70;1.40;;;22.10;99.90;;;;;;5095277;28;20603;-69
2022/12/27 12:52:47;;;;;;;2.70;1.20;;;22.10;99.90;;;;;;5091159;28;20580;-69
2022/12/27 12:55:30;;;;;;;3.10;1.43;;;22.00;99.90;;;;;;5079661;28;20649;-69
2022/12/27 12:58:16;;;;;;;5.10;1.57;;;22.00;99.90;;;;;;5074975;28;20180;-69
2022/12/27 13:01:13;;;;;;;4.00;1.07;;;22.00;99.90;;;;;;5074647;28;20200;-70
2022/12/27 13:04:01;;;;;;;2.80;1.53;;;22.10;99.90;;;;;;5074933;28;20179;-69
2022/12/27 13:07:07;;;;;;;1.73;1.00;;;22.30;99.90;;;;;;5073603;28;20219;-69
2022/12/27 13:10:01;;;;;;;4.27;1.30;;;22.30;99.90;;;;;;5037133;28;20234;-68
2022/12/27 13:12:54;;;;;;;5.37;1.60;;;22.30;99.90;;;;;;5074172;28;20176;-69
2022/12/27 13:15:36;;;;;;;5.90;1.30;;;22.30;99.90;;;;;;5074641;28;20267;-70
2022/12/27 13:18:33;;;;;;;4.97;1.60;;;22.40;99.90;;;;;;5074454;28;20168;-70
2022/12/27 13:21:13;;;;;;;5.37;1.47;;;22.30;99.90;;;;;;5074343;28;20182;-68
2022/12/27 13:24:06;;;;;;;3.13;1.57;;;22.40;99.90;;;;;;5075609;28;20203;-69
2022/12/27 13:26:56;;;;;;;5.77;1.20;;;22.30;99.90;;;;;;5074307;28;20339;-71
2022/12/27 13:29:57;;;;;;;4.73;1.20;;;22.30;99.90;;;;;;5074041;28;20204;-70
2022/12/27 13:32:43;;;;;;;5.47;1.43;;;22.30;99.90;;;;;;5072693;28;20262;-69
2022/12/27 13:35:47;;;;;;;4.77;1.30;;;22.30;99.90;;;;;;5074996;28;20594;-69
2022/12/27 13:38:27;;;;;;;3.60;1.00;;;22.40;99.90;;;;;;5073848;28;20203;-68
2022/12/27 13:41:21;;;;;;;2.47;1.13;;;22.40;99.90;;;;;;5074150;28;20255;-69
2022/12/27 13:44:02;;;;;;;2.50;1.13;;;22.50;99.90;;;;;;5073858;28;20259;-69
2022/12/27 13:47:06;;;;;;;3.73;1.40;;;22.30;99.90;;;;;;5073740;28;20186;-70
2022/12/27 13:49:44;;;;;;;2.27;1.20;;;22.30;99.90;;;;;;5074125;28;20249;-68
2022/12/27 13:52:41;;;;;;;3.47;1.00;;;22.40;99.90;;;;;;5073130;28;20184;-70
2022/12/27 13:55:24;;;;;;;3.13;1.00;;;22.40;99.90;;;;;;5088299;28;20250;-70
2022/12/27 13:58:10;;;;;;;5.63;1.20;;;22.60;99.90;;;;;;5094189;28;20195;-69
2022/12/27 14:01:06;;;;;;;6.03;1.90;;;22.70;99.90;;;;;;5093774;28;20178;-69
2022/12/27 14:03:40;;;;;;;11.27;1.40;;;22.70;99.90;;;;;;5064586;28;20222;-70
2022/12/27 14:06:31;;;;;;;2.27;1.20;;;22.60;99.90;;;;;;5093601;28;20594;-70
2022/12/27 14:09:28;;;;;;;4.83;1.43;;;22.60;99.90;;;;;;5083680;28;20227;-67
2022/12/27 14:11:56;;;;;;;6.23;1.40;;;22.60;99.90;;;;;;5094061;28;20192;-70
2022/12/27 14:14:27;;;;;;;3.97;1.47;;;22.60;99.90;;;;;;5085218;28;20183;-73
2022/12/27 14:17:38;;;;;;;2.60;1.20;;;22.70;99.90;;;;;;5073489;28;20179;-70
2022/12/27 14:20:24;;;;;;;3.13;1.30;;;22.70;99.90;;;;;;5072992;28;20211;-70
2022/12/27 14:23:22;;;;;;;7.17;1.37;;;22.70;99.90;;;;;;5073350;28;20279;-70
2022/12/27 14:26:36;;;;;;;4.50;1.30;;;22.60;99.90;;;;;;5092795;28;20179;-70
2022/12/27 14:29:31;;;;;;;5.93;1.40;;;22.70;99.90;;;;;;5093803;28;20636;-69
2022/12/27 14:32:23;;;;;;;5.87;1.50;;;22.50;99.90;;;;;;5072886;28;20183;-70
2022/12/27 14:35:27;;;;;;;3.20;1.23;;;22.50;99.90;;;;;;5076199;28;20175;-71
2022/12/27 14:37:54;;;;;;;4.43;1.67;;;22.60;99.90;;;;;;5073752;28;20172;-70
2022/12/27 14:40:46;;;;;;;5.20;2.53;;;22.60;99.90;;;;;;5072997;28;20201;-70
2022/12/27 14:43:56;;;;;;;3.90;2.73;;;22.60;99.90;;;;;;5073089;28;20210;-70
2022/12/27 14:47:20;;;;;;;7.90;3.30;;;22.60;99.90;;;;;;5072851;28;20183;-70
2022/12/27 14:50:34;;;;;;;10.13;3.80;;;22.60;99.90;;;;;;5017526;28;20227;-71
2022/12/27 14:53:31;;;;;;;8.13;4.60;;;22.50;99.90;;;;;;5065932;28;20184;-69
2022/12/27 14:56:09;;;;;;;8.80;4.87;;;22.50;99.90;;;;;;5072977;28;20758;-69
2022/12/27 14:58:52;;;;;;;9.73;6.60;;;22.50;99.90;;;;;;5082727;28;20179;-70
2022/12/27 15:01:41;;;;;;;16.07;8.80;;;22.50;99.90;;;;;;5072769;28;20187;-69
2022/12/27 15:04:27;;;;;;;13.87;11.50;;;22.40;99.90;;;;;;5071666;28;20186;-70
2022/12/27 15:07:12;;;;;;;17.03;11.07;;;22.40;99.90;;;;;;5071725;28;20195;-69
2022/12/27 15:10:06;;;;;;;21.50;13.37;;;22.40;99.90;;;;;;5072492;28;20210;-70
2022/12/27 15:12:46;;;;;;;17.53;13.33;;;22.40;99.90;;;;;;5073111;28;20224;-68
2022/12/27 15:15:36;;;;;;;15.70;12.13;;;22.30;99.90;;;;;;5073012;28;20659;-69